Time;durP1;ratioP1;P1;durP2;ratioP2;P2;SDS_P1;SDS_P2;PMS_P1;PMS_P2;Temp;Humidity;BMP_temperature;BMP_pressure;BME280_temperature;BME280_humidity;BME280_pressure;Samples;Min_cycle;Max_cycle;Signal;HPM_P1;HPM_P2
2023/06/04 00:01:19;;;;;;;9.23;3.20;;;;;;;15.50;47.91;102039.31;5115834;28;20036;-60
2023/06/04 00:03:44;;;;;;;6.50;3.30;;;;;;;15.48;48.03;102043.75;5115824;28;20024;-60
2023/06/04 00:06:10;;;;;;;5.68;3.33;;;;;;;15.52;47.82;102034.91;5115967;28;20065;-60
2023/06/04 00:08:35;;;;;;;8.25;3.17;;;;;;;15.46;48.22;102033.09;5115836;28;20110;-60
2023/06/04 00:11:00;;;;;;;4.85;3.20;;;;;;;15.43;48.67;102029.50;5115735;28;20366;-60
2023/06/04 00:13:26;;;;;;;5.70;3.03;;;;;;;15.38;48.67;102033.91;5115554;28;20075;-60
2023/06/04 00:15:51;;;;;;;8.27;3.13;;;;;;;15.32;49.10;102029.38;5115887;28;20028;-60
2023/06/04 00:18:17;;;;;;;5.70;2.85;;;;;;;15.32;48.90;102026.72;5115363;28;20491;-60
2023/06/04 00:20:42;;;;;;;9.00;3.55;;;;;;;15.28;49.66;102028.47;5114961;28;20058;-60
2023/06/04 00:23:07;;;;;;;6.90;3.00;;;;;;;15.24;49.75;102028.41;5115505;28;20031;-60
2023/06/04 00:25:33;;;;;;;5.72;3.00;;;;;;;15.17;49.72;102021.25;5097218;28;20028;-60
2023/06/04 00:27:58;;;;;;;6.90;3.00;;;;;;;15.18;50.27;102039.00;5097152;28;20028;-60
2023/06/04 00:30:23;;;;;;;6.88;2.80;;;;;;;15.14;50.30;102024.78;5115368;28;20027;-60
2023/06/04 00:32:49;;;;;;;5.85;2.60;;;;;;;15.13;50.38;102025.66;5096720;28;20027;-60
2023/06/04 00:35:14;;;;;;;5.03;2.70;;;;;;;15.13;50.43;102030.09;5115096;28;20465;-60
2023/06/04 00:37:40;;;;;;;4.00;2.47;;;;;;;15.10;50.95;102025.59;5115205;28;20028;-60
2023/06/04 00:40:06;;;;;;;7.82;2.70;;;;;;;15.07;50.83;102027.34;5115199;28;20032;-60
2023/06/04 00:42:31;;;;;;;5.43;2.50;;;;;;;15.10;51.12;102024.72;5115189;28;20024;-60
2023/06/04 00:44:58;;;;;;;5.63;2.47;;;;;;;14.99;51.31;102017.53;5115087;28;20035;-60
2023/06/04 00:47:23;;;;;;;4.68;2.40;;;;;;;14.97;51.63;102018.38;5114721;28;20043;-60
2023/06/04 00:49:49;;;;;;;4.18;2.50;;;;;;;14.90;51.85;102009.44;5114992;28;20016;-60
2023/06/04 00:52:16;;;;;;;5.30;2.40;;;;;;;14.88;51.82;102011.16;5115006;28;20019;-60
2023/06/04 00:54:42;;;;;;;4.88;2.35;;;;;;;14.89;51.93;102010.28;5115222;28;20020;-60
2023/06/04 00:57:08;;;;;;;5.95;2.67;;;;;;;14.88;52.05;102007.63;5096459;28;20385;-60
2023/06/04 00:59:36;;;;;;;3.47;2.30;;;;;;;14.87;52.42;102011.16;5114564;28;20027;-60
2023/06/04 01:02:05;;;;;;;3.45;2.30;;;;;;;14.87;52.19;102017.38;5114548;28;20027;-60
2023/06/04 01:04:36;;;;;;;4.95;2.40;;;;;;;14.86;52.39;102012.00;5114680;28;20023;-60
2023/06/04 01:07:04;;;;;;;4.40;2.42;;;;;;;14.82;52.29;102019.09;5114962;28;20024;-60
2023/06/04 01:09:33;;;;;;;7.07;2.55;;;;;;;14.81;52.55;102011.06;5114635;28;20032;-60
2023/06/04 01:11:58;;;;;;;4.75;2.50;;;;;;;14.70;52.91;102024.25;5114487;28;20492;-60
2023/06/04 01:14:25;;;;;;;4.30;2.45;;;;;;;14.65;53.18;102023.31;5095900;28;20047;-60
2023/06/04 01:17:08;;;;;;;4.78;2.53;;;;;;;14.63;53.11;102033.03;5114430;28;20015;-60
2023/06/04 01:20:12;;;;;;;5.55;2.33;;;;;;;14.57;53.18;102033.84;5114575;28;20034;-60
2023/06/04 01:22:43;;;;;;;6.15;2.50;;;;;;;14.51;53.84;102031.09;5114336;28;20039;-60
2023/06/04 01:25:38;;;;;;;5.35;2.60;;;;;;;14.58;53.01;102029.41;5114384;28;20020;-60
2023/06/04 01:28:10;;;;;;;5.07;2.60;;;;;;;14.56;53.68;102034.72;5103267;28;20051;-60
2023/06/04 01:30:42;;;;;;;4.47;2.40;;;;;;;14.54;54.06;102031.13;5114252;28;20039;-60
2023/06/04 01:33:10;;;;;;;6.13;2.83;;;;;;;14.53;53.98;102030.25;5113934;28;20122;-60
2023/06/04 01:35:35;;;;;;;5.75;2.45;;;;;;;14.45;54.16;102026.56;5114089;28;20027;-60
2023/06/04 01:38:01;;;;;;;5.68;2.60;;;;;;;14.48;54.34;102031.97;5114077;28;20049;-60
2023/06/04 01:40:26;;;;;;;3.13;2.30;;;;;;;14.47;53.91;102030.16;5114269;28;20388;-60
2023/06/04 01:42:52;;;;;;;4.10;2.50;;;;;;;14.33;54.77;102025.50;5114248;28;20051;-60
2023/06/04 01:45:18;;;;;;;6.32;2.40;;;;;;;14.32;54.44;102032.56;5114439;28;20516;-60
2023/06/04 01:47:43;;;;;;;5.13;2.33;;;;;;;14.33;54.74;102023.72;5094652;28;20031;-60
2023/06/04 01:50:09;;;;;;;5.97;2.63;;;;;;;14.31;54.48;102035.22;5113711;28;20038;-60
2023/06/04 01:52:40;;;;;;;6.07;2.80;;;;;;;14.25;54.89;102028.91;5113348;28;20027;-60
2023/06/04 01:55:08;;;;;;;8.27;2.70;;;;;;;14.24;55.16;102021.81;5113689;28;20027;-60
2023/06/04 01:57:35;;;;;;;7.47;2.50;;;;;;;14.27;54.78;102028.97;5113620;28;20038;-60
2023/06/04 02:00:01;;;;;;;5.90;2.75;;;;;;;14.25;55.04;102030.69;5113927;28;20057;-60
2023/06/04 02:02:27;;;;;;;6.00;2.50;;;;;;;14.26;54.82;102030.72;5113002;28;20028;-60
2023/06/04 02:04:52;;;;;;;5.80;2.30;;;;;;;14.26;54.88;102029.81;5113654;28;20027;-60
2023/06/04 02:07:23;;;;;;;6.13;2.58;;;;;;;14.30;54.75;102039.63;5113567;28;20062;-60
2023/06/04 02:09:49;;;;;;;4.10;2.40;;;;;;;14.33;54.57;102031.69;5113647;28;20028;-60
2023/06/04 02:12:15;;;;;;;9.02;2.60;;;;;;;14.33;54.56;102023.72;5096353;28;20473;-60
2023/06/04 02:14:41;;;;;;;6.30;2.47;;;;;;;14.23;55.27;102022.69;5092785;28;20094;-60
2023/06/04 02:17:12;;;;;;;5.43;2.45;;;;;;;14.14;55.51;102027.88;5093143;28;20115;-60
2023/06/04 02:19:44;;;;;;;4.35;2.50;;;;;;;14.11;55.45;102021.63;5093186;28;20059;-60
2023/06/04 02:22:13;;;;;;;5.80;2.22;;;;;;;14.09;55.84;102024.28;5093031;28;20071;-60
2023/06/04 02:24:42;;;;;;;4.90;2.40;;;;;;;14.01;55.97;102020.59;5093058;28;20035;-60
2023/06/04 02:27:07;;;;;;;7.22;2.50;;;;;;;13.93;56.39;102020.47;5093248;28;20024;-60
2023/06/04 02:29:33;;;;;;;6.00;2.33;;;;;;;13.86;56.35;102015.91;5092541;28;20198;-60
2023/06/04 02:31:58;;;;;;;5.18;2.40;;;;;;;13.86;56.20;102021.22;5074320;28;20111;-61
2023/06/04 02:34:24;;;;;;;4.15;2.50;;;;;;;13.83;56.63;102020.28;5093056;28;20061;-60
2023/06/04 02:36:50;;;;;;;4.35;2.40;;;;;;;13.80;56.51;102018.50;5092634;28;20028;-60
2023/06/04 02:39:19;;;;;;;4.35;2.72;;;;;;;13.73;57.02;102028.09;5092787;28;20070;-60
2023/06/04 02:41:44;;;;;;;5.45;2.50;;;;;;;13.66;57.37;102027.97;5092734;28;20054;-60
2023/06/04 02:44:10;;;;;;;3.33;2.40;;;;;;;13.62;57.09;102027.06;5092625;28;20524;-60
2023/06/04 02:46:36;;;;;;;4.45;2.78;;;;;;;13.63;57.12;102028.84;5092535;28;20100;-60
2023/06/04 02:49:02;;;;;;;5.40;2.60;;;;;;;13.62;57.12;102023.47;5092791;28;20473;-60
2023/06/04 02:51:28;;;;;;;7.13;2.60;;;;;;;13.60;57.55;102030.53;5074291;28;20028;-60
2023/06/04 02:53:53;;;;;;;4.38;2.50;;;;;;;13.56;57.27;102024.28;5092711;28;20510;-60
2023/06/04 02:56:20;;;;;;;5.80;2.90;;;;;;;13.56;57.32;102024.28;5092703;28;20119;-60
2023/06/04 02:58:55;;;;;;;5.47;2.72;;;;;;;13.55;57.21;102035.78;5093196;28;20036;-60
2023/06/04 03:01:25;;;;;;;4.72;2.50;;;;;;;13.53;57.45;102029.53;5096162;28;20028;-60
2023/06/04 03:03:52;;;;;;;3.78;2.60;;;;;;;13.52;57.41;102033.06;5096803;28;20078;-60
2023/06/04 03:06:20;;;;;;;5.68;2.58;;;;;;;13.59;56.75;102026.09;5096977;28;20031;-60
2023/06/04 03:08:47;;;;;;;8.73;2.60;;;;;;;13.59;57.02;102034.97;5096489;28;20493;-60
2023/06/04 03:11:12;;;;;;;6.50;2.42;;;;;;;13.62;56.45;102040.34;5096275;28;20071;-60
2023/06/04 03:13:38;;;;;;;4.47;2.50;;;;;;;13.59;57.11;102039.38;5096290;28;20079;-60
2023/06/04 03:16:09;;;;;;;5.18;2.63;;;;;;;13.53;57.25;102032.19;5096289;28;20056;-60
2023/06/04 03:18:38;;;;;;;4.18;2.50;;;;;;;13.53;56.95;102035.75;5096563;28;20038;-60
2023/06/04 03:21:04;;;;;;;5.60;2.50;;;;;;;13.46;57.24;102028.53;5096521;28;20090;-60
2023/06/04 03:23:30;;;;;;;3.95;2.55;;;;;;;13.48;57.26;102029.44;5096732;28;20016;-60
2023/06/04 03:25:56;;;;;;;7.03;2.47;;;;;;;13.50;56.90;102029.50;5096116;28;20024;-60
2023/06/04 03:28:22;;;;;;;6.68;3.03;;;;;;;13.50;57.14;102025.06;5096311;28;20073;-60
2023/06/04 03:30:47;;;;;;;6.78;2.50;;;;;;;13.47;57.19;102025.00;5096043;28;20429;-60
2023/06/04 03:33:12;;;;;;;6.93;2.50;;;;;;;13.45;57.25;102028.53;5095948;28;20028;-60
2023/06/04 03:35:40;;;;;;;4.88;2.60;;;;;;;13.42;57.08;102034.66;5096086;28;20017;-60
2023/06/04 03:38:05;;;;;;;3.70;2.35;;;;;;;13.49;56.94;102033.91;5096127;28;20103;-60
2023/06/04 03:40:31;;;;;;;4.38;2.60;;;;;;;13.52;56.94;102025.97;5095861;28;20385;-60
2023/06/04 03:42:56;;;;;;;4.22;2.80;;;;;;;13.44;57.27;102032.03;5095989;28;20025;-59
2023/06/04 03:45:22;;;;;;;4.95;2.40;;;;;;;13.36;57.58;102031.91;5077875;28;20039;-60
2023/06/04 03:47:47;;;;;;;4.93;2.60;;;;;;;13.32;58.02;102032.72;5095993;28;20076;-60
2023/06/04 03:50:12;;;;;;;4.80;2.80;;;;;;;13.29;58.07;102032.66;5095685;28;20028;-60
2023/06/04 03:52:38;;;;;;;4.75;2.88;;;;;;;13.19;58.16;102031.56;5095997;28;20107;-60
2023/06/04 03:55:04;;;;;;;6.03;2.60;;;;;;;13.20;58.31;102028.03;5095498;28;20506;-60
2023/06/04 03:57:30;;;;;;;9.85;2.75;;;;;;;13.15;58.44;102028.81;5095637;28;20154;-60
2023/06/04 03:59:56;;;;;;;5.57;2.60;;;;;;;13.11;58.70;102027.84;5095716;28;20113;-61
2023/06/04 04:02:21;;;;;;;10.35;3.00;;;;;;;13.07;58.79;102031.31;5095215;28;20487;-60
2023/06/04 04:04:48;;;;;;;4.88;2.70;;;;;;;13.13;58.47;102033.19;5095768;28;20057;-60
2023/06/04 04:07:13;;;;;;;4.40;2.55;;;;;;;13.17;58.29;102037.69;5095386;28;20339;-60
2023/06/04 04:09:39;;;;;;;4.72;2.90;;;;;;;13.16;58.47;102042.09;5077230;28;20028;-60
2023/06/04 04:12:05;;;;;;;7.00;2.70;;;;;;;13.18;58.67;102031.50;5094365;28;20141;-60
2023/06/04 04:14:30;;;;;;;5.57;2.78;;;;;;;13.15;58.47;102035.00;5095100;28;20071;-60
2023/06/04 04:16:56;;;;;;;5.72;3.00;;;;;;;13.11;58.47;102030.50;5095286;28;20024;-60
2023/06/04 04:19:21;;;;;;;4.82;2.35;;;;;;;13.14;58.20;102027.88;5095156;28;20489;-60
2023/06/04 04:21:49;;;;;;;7.15;2.65;;;;;;;13.19;58.32;102038.59;5095176;28;20024;-60
2023/06/04 04:24:25;;;;;;;4.78;2.80;;;;;;;13.17;58.34;102035.91;5094860;28;20016;-60
2023/06/04 04:26:53;;;;;;;4.40;2.88;;;;;;;13.19;58.54;102042.16;5095199;28;20059;-60
2023/06/04 04:29:24;;;;;;;6.18;2.53;;;;;;;13.18;58.79;102036.81;5094937;28;20016;-60
2023/06/04 04:31:50;;;;;;;4.85;2.53;;;;;;;13.29;58.29;102037.97;5094914;28;20036;-60
2023/06/04 04:34:16;;;;;;;4.82;2.50;;;;;;;13.33;58.55;102039.81;5076851;28;20054;-60
2023/06/04 04:36:51;;;;;;;5.97;2.70;;;;;;;13.37;58.21;102036.34;5094729;28;20031;-60
2023/06/04 04:39:19;;;;;;;4.38;2.50;;;;;;;13.40;58.67;102030.16;5095064;28;20036;-60
2023/06/04 04:41:44;;;;;;;4.78;2.70;;;;;;;13.41;58.53;102040.84;5094963;28;20032;-59
2023/06/04 04:44:09;;;;;;;7.35;3.20;;;;;;;13.42;57.92;102045.28;5094702;28;20028;-60
2023/06/04 04:46:35;;;;;;;7.10;2.72;;;;;;;13.46;58.42;102044.47;5094499;28;20024;-60
2023/06/04 04:49:00;;;;;;;6.03;2.85;;;;;;;13.49;58.10;102044.53;5094727;28;20028;-60
2023/06/04 04:51:25;;;;;;;8.25;2.70;;;;;;;13.56;58.07;102042.88;5094366;28;20024;-60
2023/06/04 04:53:51;;;;;;;6.43;2.83;;;;;;;13.60;58.35;102047.38;5094747;28;20119;-60
2023/06/04 04:56:16;;;;;;;4.95;2.70;;;;;;;13.69;58.19;102047.50;5094445;28;20024;-60
2023/06/04 04:58:42;;;;;;;6.82;2.78;;;;;;;13.78;58.31;102049.44;5094730;28;20082;-60
2023/06/04 05:01:07;;;;;;;8.77;2.70;;;;;;;13.87;58.26;102043.38;5094367;28;20121;-60
2023/06/04 05:03:32;;;;;;;5.10;2.60;;;;;;;13.94;58.10;102051.47;5094344;28;20115;-60
2023/06/04 05:05:58;;;;;;;5.03;2.95;;;;;;;14.03;57.42;102050.75;5094100;28;20031;-61
2023/06/04 05:08:23;;;;;;;3.97;2.40;;;;;;;14.13;58.04;102047.38;5094172;28;20028;-62
2023/06/04 05:10:50;;;;;;;5.25;2.80;;;;;;;14.19;57.55;102044.78;5094118;28;20028;-60
2023/06/04 05:13:16;;;;;;;4.43;2.60;;;;;;;14.29;57.58;102048.47;5093839;28;20048;-60
2023/06/04 05:15:42;;;;;;;5.47;2.97;;;;;;;14.33;56.90;102049.41;5094106;28;20035;-60
2023/06/04 05:18:08;;;;;;;3.92;2.65;;;;;;;14.40;57.08;102052.19;5093874;28;20566;-61
2023/06/04 05:20:35;;;;;;;7.65;2.70;;;;;;;14.57;55.99;102049.81;5093745;28;20028;-60
2023/06/04 05:23:00;;;;;;;4.10;2.70;;;;;;;14.70;55.90;102056.19;5093862;28;20073;-60
2023/06/04 05:25:28;;;;;;;4.50;2.50;;;;;;;14.83;56.21;102054.56;5093974;28;20384;-60
2023/06/04 05:27:54;;;;;;;4.95;2.50;;;;;;;14.98;55.88;102052.09;5093858;28;20034;-61
2023/06/04 05:30:20;;;;;;;5.68;2.88;;;;;;;15.09;55.95;102052.22;5093737;28;20339;-61
2023/06/04 05:32:45;;;;;;;5.40;3.10;;;;;;;15.21;54.67;102055.91;5093478;28;20118;-60
2023/06/04 05:35:11;;;;;;;9.32;3.10;;;;;;;15.32;54.36;102055.13;5093573;28;20031;-60
2023/06/04 05:37:37;;;;;;;7.18;3.00;;;;;;;15.53;53.79;102055.34;5093902;28;20054;-60
2023/06/04 05:40:05;;;;;;;4.95;2.80;;;;;;;15.71;53.72;102059.97;5093642;28;20481;-63
2023/06/04 05:42:30;;;;;;;5.15;2.83;;;;;;;15.87;53.16;102058.34;5093872;28;20032;-60
2023/06/04 05:44:55;;;;;;;4.70;3.03;;;;;;;16.01;52.31;102046.91;5075569;28;20031;-60
2023/06/04 05:47:22;;;;;;;5.60;3.13;;;;;;;16.14;51.99;102058.56;5093311;28;20039;-61
2023/06/04 05:49:47;;;;;;;5.70;2.95;;;;;;;16.22;51.34;102055.94;5093186;28;20538;-61
2023/06/04 05:52:13;;;;;;;6.28;3.67;;;;;;;16.31;50.03;102045.34;5075568;28;20036;-61
2023/06/04 05:54:38;;;;;;;8.35;4.45;;;;;;;16.40;50.54;102044.50;5093429;28;20337;-61
2023/06/04 05:57:05;;;;;;;5.72;3.50;;;;;;;16.62;50.36;102045.53;5092635;28;20097;-61
2023/06/04 05:59:30;;;;;;;4.40;3.17;;;;;;;16.79;49.78;102054.56;5093493;28;20032;-60
2023/06/04 06:01:56;;;;;;;12.18;3.05;;;;;;;16.89;49.44;102043.00;5092867;28;20028;-61
2023/06/04 06:04:22;;;;;;;7.00;3.47;;;;;;;17.01;48.60;102047.50;5093046;28;20558;-60
2023/06/04 06:06:48;;;;;;;6.80;3.13;;;;;;;17.22;48.80;102055.59;5075221;28;20036;-60
2023/06/04 06:09:14;;;;;;;8.88;3.00;;;;;;;17.36;47.85;102054.72;5093097;28;20396;-60
2023/06/04 06:11:40;;;;;;;6.40;3.30;;;;;;;17.33;47.52;102060.06;5093126;28;20111;-61
2023/06/04 06:14:05;;;;;;;4.43;3.20;;;;;;;17.50;47.35;102063.66;5092892;28;20135;-61
2023/06/04 06:16:32;;;;;;;6.30;3.22;;;;;;;17.74;46.89;102057.50;5092989;28;20024;-60
2023/06/04 06:18:57;;;;;;;6.93;3.20;;;;;;;17.99;46.36;102059.28;5092984;28;20028;-60
2023/06/04 06:21:23;;;;;;;5.97;3.15;;;;;;;18.19;45.80;102055.66;5092991;28;20027;-60
2023/06/04 06:23:48;;;;;;;5.28;3.10;;;;;;;18.22;46.38;102056.56;5093024;28;20389;-61
2023/06/04 06:26:13;;;;;;;6.13;2.97;;;;;;;18.39;44.82;102061.88;5093134;28;20057;-60
2023/06/04 06:28:41;;;;;;;7.95;3.10;;;;;;;18.56;44.52;102064.53;5092933;28;20207;-60
2023/06/04 06:31:07;;;;;;;6.07;3.35;;;;;;;18.53;44.17;102061.84;5092732;28;20027;-61
2023/06/04 06:33:32;;;;;;;7.13;3.30;;;;;;;18.68;44.81;102069.84;5092190;28;20028;-61
2023/06/04 06:36:00;;;;;;;7.00;3.20;;;;;;;18.84;43.49;102068.00;5092748;28;20105;-60
2023/06/04 06:38:26;;;;;;;7.78;3.20;;;;;;;19.02;43.54;102062.59;5092447;28;20477;-60
2023/06/04 06:40:52;;;;;;;5.82;3.28;;;;;;;19.22;43.48;102069.63;5092578;28;20489;-60
2023/06/04 06:43:17;;;;;;;4.90;2.90;;;;;;;19.40;42.00;102080.28;5092694;28;20024;-61
2023/06/04 06:45:42;;;;;;;4.10;3.08;;;;;;;19.56;41.65;102072.09;5092738;28;20027;-60
2023/06/04 06:48:08;;;;;;;6.80;3.40;;;;;;;19.82;40.95;102074.63;5092417;28;20459;-60
2023/06/04 06:50:35;;;;;;;4.80;3.15;;;;;;;19.97;40.78;102079.88;5074601;28;20096;-61
2023/06/04 06:53:03;;;;;;;7.40;3.10;;;;;;;20.17;40.88;102085.97;5092428;28;20039;-61
2023/06/04 06:55:29;;;;;;;9.32;3.35;;;;;;;20.35;40.57;102074.16;5092607;28;20034;-61
2023/06/04 06:57:55;;;;;;;6.82;3.33;;;;;;;20.59;39.40;102075.72;5092541;28;20095;-61
2023/06/04 07:00:20;;;;;;;7.03;3.08;;;;;;;20.75;39.36;102079.13;5092687;28;20112;-61
2023/06/04 07:02:46;;;;;;;9.85;3.20;;;;;;;20.83;39.15;102082.59;5092410;28;20024;-61
2023/06/04 07:05:14;;;;;;;7.22;3.40;;;;;;;20.98;37.97;102082.44;5092856;28;20462;-61
2023/06/04 07:07:39;;;;;;;8.18;3.22;;;;;;;21.13;37.08;102083.13;5092845;28;20032;-61
2023/06/04 07:10:05;;;;;;;5.07;3.17;;;;;;;21.21;36.56;102084.81;5092423;28;20104;-61
2023/06/04 07:12:30;;;;;;;7.03;3.50;;;;;;;21.38;36.68;102092.69;5092632;28;20035;-61
2023/06/04 07:14:56;;;;;;;8.10;3.30;;;;;;;21.53;36.58;102093.34;5092848;28;20570;-61
2023/06/04 07:17:22;;;;;;;5.00;3.22;;;;;;;21.58;36.89;102086.97;5092266;28;20031;-61
2023/06/04 07:19:47;;;;;;;6.38;3.03;;;;;;;21.79;35.83;102090.25;5092445;28;20024;-61
2023/06/04 07:22:15;;;;;;;7.45;3.28;;;;;;;21.90;34.40;102085.59;5092341;28;20025;-61
2023/06/04 07:24:41;;;;;;;6.53;3.33;;;;;;;22.01;34.80;102086.28;5092630;28;20028;-61
2023/06/04 07:27:14;;;;;;;4.53;2.83;;;;;;;22.20;33.98;102093.19;5092458;28;20115;-60
2023/06/04 07:29:40;;;;;;;7.60;3.20;;;;;;;22.25;33.25;102087.72;5092357;28;20035;-61
2023/06/04 07:32:06;;;;;;;5.20;3.00;;;;;;;22.34;34.45;102092.03;5092218;28;20024;-61
2023/06/04 07:34:32;;;;;;;5.85;3.10;;;;;;;22.37;33.36;102079.41;5092509;28;20024;-60
2023/06/04 07:36:57;;;;;;;6.03;3.08;;;;;;;22.64;33.29;102082.50;5092355;28;20021;-61
2023/06/04 07:39:23;;;;;;;4.43;2.80;;;;;;;22.88;32.40;102081.13;5092361;28;20021;-61
2023/06/04 07:41:48;;;;;;;6.65;3.17;;;;;;;22.94;31.33;102083.72;5092255;28;20024;-61
2023/06/04 07:44:14;;;;;;;8.10;3.30;;;;;;;23.11;31.11;102092.31;5092230;28;20032;-61
2023/06/04 07:46:39;;;;;;;6.63;3.40;;;;;;;23.24;31.05;102088.44;5094369;28;20062;-61
2023/06/04 07:49:05;;;;;;;4.22;2.83;;;;;;;23.44;30.39;102087.13;5096205;28;20032;-61
2023/06/04 07:51:30;;;;;;;6.93;2.92;;;;;;;23.60;29.06;102091.25;5095809;28;20412;-61
2023/06/04 07:53:56;;;;;;;4.93;2.78;;;;;;;23.60;28.28;102091.25;5095787;28;20498;-61
2023/06/04 07:56:21;;;;;;;6.35;3.13;;;;;;;23.66;28.70;102095.63;5095970;28;20028;-61
2023/06/04 07:58:47;;;;;;;5.50;2.85;;;;;;;23.84;29.67;102087.06;5095923;28;20016;-64
2023/06/04 08:01:13;;;;;;;5.35;3.10;;;;;;;23.91;29.62;102088.72;5095363;28;20028;-61
2023/06/04 08:03:38;;;;;;;5.82;2.80;;;;;;;24.14;28.97;102088.09;5095613;28;20054;-62
2023/06/04 08:06:04;;;;;;;7.55;2.97;;;;;;;24.33;29.33;102090.34;5077410;28;20127;-61
2023/06/04 08:08:29;;;;;;;6.45;2.80;;;;;;;24.57;27.12;102087.00;5095747;28;20141;-61
2023/06/04 08:10:55;;;;;;;6.00;2.70;;;;;;;24.70;26.61;102082.13;5095427;28;20024;-61
2023/06/04 08:13:20;;;;;;;6.45;2.72;;;;;;;24.99;26.09;102084.88;5095285;28;20044;-61
2023/06/04 08:15:46;;;;;;;4.53;2.80;;;;;;;25.09;25.80;102079.22;5095582;28;20028;-61
2023/06/04 08:18:11;;;;;;;3.85;2.50;;;;;;;25.31;25.79;102083.06;5095491;28;20048;-61
2023/06/04 08:20:37;;;;;;;4.45;2.53;;;;;;;25.51;26.40;102081.53;5095200;28;20032;-61
2023/06/04 08:23:02;;;;;;;4.80;2.83;;;;;;;25.53;26.49;102088.69;5095446;28;20153;-62
2023/06/04 08:25:29;;;;;;;3.63;2.72;;;;;;;25.62;26.25;102082.97;5095158;28;20489;-62
2023/06/04 08:27:54;;;;;;;4.28;2.75;;;;;;;25.84;25.65;102090.41;5095078;28;20028;-62
2023/06/04 08:30:20;;;;;;;6.97;2.85;;;;;;;26.07;26.48;102086.91;5076365;28;20032;-63
2023/06/04 08:32:45;;;;;;;5.10;2.58;;;;;;;26.18;24.11;102084.75;5094927;28;20028;-62
2023/06/04 08:35:11;;;;;;;5.68;2.35;;;;;;;26.27;23.65;102091.66;5076952;28;20027;-62
2023/06/04 08:37:36;;;;;;;5.63;2.30;;;;;;;26.48;24.69;102079.22;5095107;28;20028;-62
2023/06/04 08:40:04;;;;;;;5.38;2.50;;;;;;;26.60;23.64;102086.91;5094913;28;20431;-61
2023/06/04 08:42:31;;;;;;;4.32;2.50;;;;;;;26.59;24.40;102086.00;5076608;28;20035;-61
2023/06/04 08:44:57;;;;;;;3.67;2.58;;;;;;;26.71;24.15;102079.25;5094951;28;20115;-62
2023/06/04 08:47:25;;;;;;;4.10;2.50;;;;;;;26.61;23.88;102086.84;5094700;28;20051;-62
2023/06/04 08:49:53;;;;;;;7.50;2.58;;;;;;;26.81;22.79;102083.41;5094719;28;20032;-62
2023/06/04 08:52:21;;;;;;;5.18;2.45;;;;;;;26.99;23.48;102089.06;5076488;28;20024;-62
2023/06/04 08:54:51;;;;;;;4.35;2.30;;;;;;;26.99;23.79;102087.25;5094739;28;20024;-62
2023/06/04 08:57:18;;;;;;;5.18;2.33;;;;;;;27.27;22.34;102097.94;5093974;28;20480;-62
2023/06/04 08:59:46;;;;;;;4.32;2.22;;;;;;;27.46;21.29;102098.09;5094505;28;20513;-61
2023/06/04 09:02:13;;;;;;;5.75;2.17;;;;;;;27.48;20.59;102106.16;5094026;28;20469;-61
2023/06/04 09:04:39;;;;;;;5.53;2.40;;;;;;;27.40;20.40;102099.19;5076371;28;20016;-62
2023/06/04 09:07:06;;;;;;;6.85;2.20;;;;;;;27.49;21.37;102094.34;5094294;28;20039;-63
2023/06/04 09:09:38;;;;;;;3.15;2.10;;;;;;;27.61;20.16;102099.28;5094264;28;20023;-62
2023/06/04 09:12:06;;;;;;;4.30;2.22;;;;;;;27.43;19.31;102109.06;5094420;28;20031;-62
2023/06/04 09:14:31;;;;;;;4.50;2.25;;;;;;;27.38;19.67;102098.41;5093878;28;20058;-63
2023/06/04 09:16:58;;;;;;;4.95;2.20;;;;;;;27.60;19.85;102098.41;5093507;28;20032;-63
2023/06/04 09:19:24;;;;;;;3.13;2.13;;;;;;;27.57;20.51;102103.97;5094096;28;20536;-62
2023/06/04 09:21:49;;;;;;;8.43;2.00;;;;;;;27.73;19.64;102098.84;5094257;28;20081;-62
2023/06/04 09:24:15;;;;;;;2.92;1.95;;;;;;;27.66;18.93;102103.59;5094039;28;20400;-62
2023/06/04 09:26:40;;;;;;;3.03;2.00;;;;;;;27.58;18.78;102100.31;5094052;28;20047;-62
2023/06/04 09:29:05;;;;;;;3.78;2.17;;;;;;;27.69;19.60;102108.91;5093904;28;20381;-62
2023/06/04 09:31:36;;;;;;;3.08;1.90;;;;;;;27.58;20.22;102105.75;5093786;28;20065;-63
2023/06/04 09:34:02;;;;;;;3.25;2.00;;;;;;;27.78;19.13;102091.38;5094155;28;20040;-62
2023/06/04 09:36:30;;;;;;;4.22;2.10;;;;;;;27.70;19.98;102099.78;5093773;28;20032;-62
2023/06/04 09:38:56;;;;;;;6.10;2.28;;;;;;;27.74;20.36;102094.28;5093842;28;20032;-63
2023/06/04 09:41:22;;;;;;;5.22;2.10;;;;;;;27.82;20.34;102098.44;5075597;28;20091;-63
2023/06/04 09:43:47;;;;;;;3.80;1.90;;;;;;;28.05;19.43;102088.44;5093624;28;20481;-62
2023/06/04 09:46:14;;;;;;;3.70;1.80;;;;;;;28.49;19.42;102091.09;5093691;28;20048;-63
2023/06/04 09:48:41;;;;;;;3.53;2.10;;;;;;;28.37;19.29;102090.69;5093631;28;20036;-62
2023/06/04 09:51:19;;;;;;;5.25;1.70;;;;;;;28.37;18.88;102087.09;5075388;28;20485;-63
2023/06/04 09:53:54;;;;;;;4.28;2.00;;;;;;;28.32;19.17;102086.38;5093694;28;20054;-63
2023/06/04 09:56:21;;;;;;;3.65;2.00;;;;;;;28.29;19.63;102090.09;5093661;28;20030;-62
2023/06/04 09:58:49;;;;;;;4.97;2.20;;;;;;;28.48;19.25;102086.59;5093119;28;20035;-63
2023/06/04 10:01:15;;;;;;;4.07;1.80;;;;;;;28.46;19.08;102075.78;5093378;28;20097;-62
2023/06/04 10:03:47;;;;;;;10.60;2.00;;;;;;;28.82;19.71;102080.50;5093263;28;20020;-62
2023/06/04 10:06:14;;;;;;;;;;;;;;;29.21;20.02;102072.38;5093674;28;20024;-63
2023/06/04 10:08:42;;;;;;;3.63;2.10;;;;;;;28.94;18.59;102082.66;5092832;28;19938;-63
2023/06/04 10:11:11;;;;;;;3.10;2.00;;;;;;;28.90;19.35;102078.31;5093330;28;20020;-62
2023/06/04 10:14:02;;;;;;;4.97;2.00;;;;;;;29.13;18.72;102074.56;5093014;28;20050;-62
2023/06/04 10:16:30;;;;;;;2.63;1.80;;;;;;;28.86;18.16;102073.97;5081059;28;20036;-62
2023/06/04 10:18:57;;;;;;;3.42;1.85;;;;;;;28.50;18.50;102076.56;5093133;28;20028;-62
2023/06/04 10:21:23;;;;;;;2.88;1.85;;;;;;;28.43;19.26;102084.09;5093172;28;20052;-63
2023/06/04 10:23:49;;;;;;;3.45;1.80;;;;;;;28.54;18.82;102079.06;5093297;28;20085;-63
2023/06/04 10:26:15;;;;;;;4.05;1.73;;;;;;;28.92;18.46;102077.31;5093059;28;20024;-62
2023/06/04 10:28:42;;;;;;;3.17;1.70;;;;;;;29.27;19.38;102091.13;5092978;28;20058;-62
2023/06/04 10:31:09;;;;;;;3.45;2.00;;;;;;;29.45;18.74;102078.44;5092986;28;20024;-63
2023/06/04 10:33:35;;;;;;;3.92;1.80;;;;;;;29.49;18.28;102087.34;5093058;28;20024;-62
2023/06/04 10:36:19;;;;;;;3.97;1.70;;;;;;;29.61;18.58;102082.22;5093111;28;20032;-63
2023/06/04 10:38:49;;;;;;;4.35;2.10;;;;;;;29.54;18.28;102083.44;5093203;28;20024;-62
2023/06/04 10:41:16;;;;;;;5.13;2.15;;;;;;;29.81;18.21;102080.34;5092836;28;20032;-63
2023/06/04 10:43:46;;;;;;;7.10;2.00;;;;;;;30.02;18.23;102084.72;5092731;28;20035;-63
2023/06/04 10:46:16;;;;;;;5.05;2.00;;;;;;;30.16;17.63;102084.91;5075700;28;20024;-62
2023/06/04 10:48:52;;;;;;;5.47;2.13;;;;;;;30.01;18.21;102077.47;5093037;28;20093;-63
2023/06/04 10:51:34;;;;;;;3.22;2.03;;;;;;;29.86;18.24;102083.72;5092909;28;20039;-63
2023/06/04 10:54:01;;;;;;;3.20;1.80;;;;;;;29.60;18.01;102076.84;5092719;28;20038;-63
2023/06/04 10:56:37;;;;;;;3.85;2.00;;;;;;;29.43;16.93;102078.53;5092629;28;20477;-62
2023/06/04 10:59:17;;;;;;;2.95;1.92;;;;;;;29.57;17.52;102077.88;5092789;28;20067;-63
2023/06/04 11:01:43;;;;;;;6.90;3.55;;;;;;;29.77;17.04;102076.00;5092365;28;20311;-63
2023/06/04 11:04:25;;;;;;;3.17;1.83;;;;;;;29.99;19.15;102075.81;5092623;28;20030;-62
2023/06/04 11:07:20;;;;;;;;;;;;;;;30.44;17.41;102077.97;5093470;28;20111;-63
2023/06/04 11:09:50;;;;;;;2.70;1.80;;;;;;;30.39;16.70;102071.91;5070897;28;19920;-63
2023/06/04 11:12:15;;;;;;;3.42;1.80;;;;;;;30.39;17.88;102072.78;5092598;28;20025;-62
2023/06/04 11:14:41;;;;;;;5.25;1.80;;;;;;;30.27;16.59;102070.69;5092390;28;20128;-63
2023/06/04 11:17:13;;;;;;;6.57;2.00;;;;;;;30.52;16.97;102062.09;5092266;28;20465;-62
2023/06/04 11:19:39;;;;;;;3.90;1.80;;;;;;;30.36;17.91;102067.50;5093076;28;20036;-63
2023/06/04 11:22:05;;;;;;;4.88;1.80;;;;;;;30.23;16.42;102066.34;5096674;28;20114;-62
2023/06/04 11:24:32;;;;;;;3.83;2.08;;;;;;;29.95;17.07;102058.72;5096605;28;20070;-62
2023/06/04 11:27:01;;;;;;;4.03;1.98;;;;;;;29.90;17.10;102064.41;5096330;28;20025;-63